AirNav   Duncan Aviation - Near you to keep you flying
 
 1101 users online  

NA12 Johnson Airport
Turtle Lake, North Dakota, USA

GOING TO TURTLE LAKE?


FAA INFORMATION EFFECTIVE 11 AUGUST 2022

Location

FAA Identifier: NA12
Lat/Long: 47-25-53.9880N 100-50-29.5010W
47-25.899800N 100-50.491683W
47.4316633,-100.8415281
(estimated)
Elevation: 1920 ft. / 585 m (estimated)
Variation: 10E (1985)
From city: 6 miles SE of TURTLE LAKE, ND
Time zone: UTC -5 (UTC -6 during Standard Time)
Zip code: 58559

Airport Operations

Airport use: Private use. Permission required prior to landing
Activation date: 01/1981
Control tower: no
ARTCC: MINNEAPOLIS CENTER
FSS: GRAND FORKS FLIGHT SERVICE STATION
Attendance: IREG
Wind indicator: no
Segmented circle: no

Airport Services

Runway Information

Runway 17/35

Dimensions: 1700 x 70 ft. / 518 x 21 m
Surface: turf
RUNWAY 17  RUNWAY 35
Traffic pattern: leftleft
Obstructions: none25 ft. trees, 50 ft. from runway

Airport Ownership and Management from official FAA records

Ownership: Privately-owned
Owner: ROGER JOHNSON
124 14TH AVE NW
TURTLE LAKE, ND 58575
Phone 701-448-2833
Manager: JOSEPH K JOHNSON
124 14TH AVE NW
TURTLE LAKE, ND 58575
Phone (701) 516-3826

Airport Operational Statistics

Aircraft based on the field: 1
Single engine airplanes: 1
    

Additional Remarks

FOR CD CTC MINNEAPOLIS ARTCC AT 651-463-5588.

Instrument Procedures

There are no published instrument procedures at NA12.

Some nearby airports with instrument procedures:

D05 - Garrison Municipal Airport (28 nm NW)
KHZE - Mercer County Regional Airport (31 nm W)
KBIS - Bismarck Municipal Airport (40 nm S)
Y19 - Mandan Regional Airport/Lawler Field (40 nm S)
5H4 - Harvey Municipal Airport (43 nm NE)
 
Loc | Ops | Rwys | IFR | FBO | Links
Com | Nav | Svcs | Stats | Notes

Bismarck Aero Center
AirBoss

 
Area around NA12 (Johnson Airport)
 
Road maps at: MapQuest Bing Google
 
Aerial photo
No photo
 
Sectional chart

 
Airport distance calculator
Flying to Johnson Airport? Find the distance to fly.

From to NA12

Sunrise and sunset
Times for 16-Aug-2022
 Local
(UTC-5)
 Zulu
(UTC)
Morning civil twilight06:0811:08
Sunrise06:4211:42
Sunset20:5301:53
Evening civil twilight21:2702:27

Current date and time
Zulu (UTC)  17-Aug-2022 02:50:03
Local (UTC-5)  16-Aug-2022 21:50:03
 
METAR
KN60 
27nm NW 
170152Z AUTO 05003KT 24/16 A3004 RMK AO1 SLP164 T02440161
KHZE 
31nm W 
170235Z AUTO 05003KT 9SM CLR 24/15 A3005 RMK AO2
KY19 
40nm S 
170235Z AUTO 16003KT 10SM FEW036 25/19 A3004 RMK AO2
KBIS 
40nm S 
170152Z 18003KT 10SM CLR 29/16 A3002 RMK AO2 SLP156 T02890161
K5H4 
43nm NE 
170235Z AUTO 08005KT 10SM 22/22 A3006 RMK AO2
TAF
KBIS 
40nm S 
161733Z 1618/1718 VRB05KT P6SM FEW100 FEW250
NOTAMs
Click for the latest NOTAMs
NOTAMs are issued by the DoD/FAA and will open in a separate window not controlled by AirNav.

 

 
 

Would you like to see your business listed on this page?

 If your business provides an interesting product or service to pilots, flight crews, aircraft, or users of the Johnson Airport, you should consider listing it here.  To start the listing process, click on the button below
 
Add a business
 

Other Pages about Johnson Airport

Update a link
 
Copyright © AirNav, LLC. All rights reserved. Privacy Policy  Contact